aviador You're here:

KSFF Decoded Metar

SPOKANE in WA, USA
Report Time2017-12-17 07:53:00
UTC Time2017-12-17 08:01:51
Flight Rules mvfr MVFR
Wind050° at 04 kt
W.Decomp.*RWY 04: 4.0 kt HW 0.4 kt LCW
W.Rank050° ranks 8
Current wind is below 050° avg. (4.1)
Visibility9999 m
Phenomena:N/A
Clouds:Overcast 017 Hf
Expected CloudBase > 400 ft AGL from Temp-Dew spread
Ceiling1,700 ft
Temp-3°C (ISA -14)
Dew Point-4°C (93% RH)
AAT-6.9°C
QNH1023 hPa
Density Alt10 ft
Elevation1,998 ft
Report Wrong Elevation
Raw Report
KSFF 170753Z AUTO 05004KT 10SM OVC017 M03/M04 A3022 RMK AO2 SLP253
T10281044 410171044=

Extra information for KSFF:More info

Metar Taf Metar & Taf Last 4 Metars F.Rules Stats Wind Profile Meteogram Temp Stats Airport Information Weather charts Add Link Nearby VenuesMetar ALERT Operation Metar Decoded Social comments

AIRNAV info for KSFF